Terminal Aerodrome Forecast
Issued by NWS

Home | Current Version | Previous Version | Text Only | Print | Product List | Glossary On
Versions: 1 2 3 4 5 6 7 8 9 10 11 12
000
FTUS45 KFGZ 022330
TAFPGA
TAF
KPGA 022330Z 0300/0324 28008G18KT P6SM SCT120 BKN150
     FM030230 VRB05KT P6SM SCT150
     FM032030 26008KT P6SM SCT120=

USA.gov is the U.S. government's official web portal to all federal, state and local government web resources and services.